Time;durP1;ratioP1;P1;durP2;ratioP2;P2;SDS_P1;SDS_P2;PMS_P1;PMS_P2;Temp;Humidity;BMP_temperature;BMP_pressure;BME280_temperature;BME280_humidity;BME280_pressure;Samples;Min_cycle;Max_cycle;Signal;HPM_P1;HPM_P2
2022/09/04 00:02:03;;;;;;;26.70;18.33;;;;;;;16.58;81.26;101330.56;5055787;28;20032;-86
2022/09/04 00:04:43;;;;;;;27.60;18.88;;;;;;;16.54;80.68;101330.78;5059647;28;20025;-86
2022/09/04 00:07:29;;;;;;;25.70;16.95;;;;;;;16.53;80.52;101332.53;5054415;28;20403;-86
2022/09/04 00:10:30;;;;;;;25.75;17.63;;;;;;;16.52;81.00;101329.97;5065069;28;20565;-85
2022/09/04 00:12:57;;;;;;;27.15;18.40;;;;;;;16.47;82.19;101335.41;5055615;28;20530;-86
2022/09/04 00:15:30;;;;;;;28.08;19.25;;;;;;;16.45;82.29;101337.22;5055697;28;20028;-86
2022/09/04 00:18:12;;;;;;;30.17;18.20;;;;;;;16.43;82.27;101349.53;5053681;28;20036;-86
2022/09/04 00:20:44;;;;;;;27.52;18.45;;;;;;;16.38;82.48;101341.00;5053663;28;20028;-86
2022/09/04 00:23:24;;;;;;;28.60;18.05;;;;;;;16.39;82.87;101347.09;5063969;28;20502;-86
2022/09/04 00:26:03;;;;;;;25.63;17.45;;;;;;;16.36;82.06;101345.47;5055556;28;20060;-86
2022/09/04 00:28:41;;;;;;;27.17;17.48;;;;;;;16.32;82.06;101353.47;5055726;28;20122;-86
2022/09/04 00:31:24;;;;;;;27.08;18.08;;;;;;;16.28;82.14;101357.13;5058431;28;20088;-86
2022/09/04 00:34:17;;;;;;;25.75;17.25;;;;;;;16.24;82.69;101363.41;5070261;28;20055;-86
2022/09/04 00:36:49;;;;;;;28.15;16.98;;;;;;;16.20;83.04;101357.44;5053165;28;20033;-86
2022/09/04 00:39:19;;;;;;;26.55;17.20;;;;;;;16.19;83.04;101360.94;5052481;28;20029;-86
2022/09/04 00:42:05;;;;;;;27.58;17.83;;;;;;;16.15;83.05;101365.47;5062386;28;20066;-86
2022/09/04 00:44:40;;;;;;;28.45;17.35;;;;;;;16.10;82.98;101358.72;5042045;28;20039;-86
2022/09/04 00:47:20;;;;;;;;;;;;;;;16.12;79.98;101362.09;5055805;28;20501;-86
2022/09/04 00:50:02;;;;;;;24.42;16.98;;;;;;;16.07;82.78;101358.81;5054980;28;19956;-84
2022/09/04 00:52:33;;;;;;;26.00;18.38;;;;;;;15.99;83.89;101361.72;5079125;28;20028;-84
2022/09/04 00:55:26;;;;;;;28.73;18.27;;;;;;;15.94;82.75;101361.03;5058216;28;20068;-84
2022/09/04 00:57:57;;;;;;;28.08;18.38;;;;;;;15.93;84.06;101359.34;5055541;28;20035;-84
2022/09/04 01:00:24;;;;;;;29.55;18.30;;;;;;;15.90;84.90;101358.59;5054632;28;20033;-84
2022/09/04 01:03:11;;;;;;;27.42;18.23;;;;;;;15.86;83.66;101373.53;5057490;28;20419;-84
2022/09/04 01:06:13;;;;;;;26.13;18.10;;;;;;;15.85;83.94;101377.06;5051654;28;20044;-84
2022/09/04 01:08:58;;;;;;;26.27;17.45;;;;;;;15.84;83.93;101382.34;5058396;28;20035;-84
2022/09/04 01:11:42;;;;;;;26.73;17.90;;;;;;;15.86;84.14;101381.38;5055595;28;20070;-84
2022/09/04 01:14:32;;;;;;;33.80;18.92;;;;;;;15.83;83.78;101378.88;5051060;28;20040;-84
2022/09/04 01:17:09;;;;;;;29.55;18.23;;;;;;;15.84;85.46;101387.56;5051679;28;20486;-84
2022/09/04 01:19:43;;;;;;;28.67;18.58;;;;;;;15.80;85.12;101390.31;5051310;28;20040;-84
2022/09/04 01:22:23;;;;;;;;;;;;;;;15.80;81.70;101395.53;5053925;28;20612;-84
2022/09/04 01:25:12;;;;;;;30.25;18.52;;;;;;;15.71;84.51;101397.63;5054145;28;20391;-84
2022/09/04 01:28:00;;;;;;;26.08;18.00;;;;;;;15.66;83.84;101397.78;5050112;28;20021;-84
2022/09/04 01:30:27;;;;;;;28.88;18.58;;;;;;;15.60;84.97;101391.94;5048998;28;20025;-84
2022/09/04 01:33:16;;;;;;;30.35;18.83;;;;;;;15.56;84.89;101393.78;5054579;28;20029;-84
2022/09/04 01:35:54;;;;;;;30.45;19.30;;;;;;;15.55;85.03;101393.88;5049767;28;20033;-84
2022/09/04 01:38:54;;;;;;;30.55;19.88;;;;;;;15.54;85.63;101392.16;5051216;28;20543;-84
2022/09/04 01:41:40;;;;;;;32.35;19.23;;;;;;;15.52;85.78;101401.78;5062607;28;20028;-84
2022/09/04 01:44:10;;;;;;;30.73;18.83;;;;;;;15.42;85.70;101396.03;5050295;28;20509;-84
2022/09/04 01:47:33;;;;;;;33.00;20.10;;;;;;;15.42;84.42;101406.47;5053950;28;20090;-84
2022/09/04 01:50:26;;;;;;;30.73;19.98;;;;;;;15.39;84.84;101406.56;5051781;28;20068;-84
2022/09/04 01:53:04;;;;;;;30.85;19.55;;;;;;;15.37;86.16;101406.63;5057505;28;20041;-84
2022/09/04 01:56:03;;;;;;;33.13;21.02;;;;;;;15.33;85.52;101398.94;5049976;28;20056;-84
2022/09/04 01:58:46;;;;;;;28.92;19.30;;;;;;;15.30;86.24;101405.13;5050849;28;20028;-84
2022/09/04 02:01:42;;;;;;;33.73;20.23;;;;;;;15.29;86.35;101415.63;5051205;28;20086;-84
2022/09/04 02:04:32;;;;;;;31.10;20.20;;;;;;;15.22;87.11;101416.72;5049089;28;20108;-84
2022/09/04 02:07:21;;;;;;;33.67;20.73;;;;;;;15.22;87.94;101416.72;5053197;28;20117;-84
2022/09/04 02:10:08;;;;;;;33.05;20.60;;;;;;;15.23;88.00;101424.50;5051781;28;20028;-84
2022/09/04 02:13:01;;;;;;;34.72;20.42;;;;;;;15.23;87.21;101439.34;5050194;28;20091;-84
2022/09/04 02:15:34;;;;;;;35.33;19.98;;;;;;;15.22;88.11;101440.22;5049444;28;20024;-84
2022/09/04 02:18:34;;;;;;;32.45;19.95;;;;;;;15.22;87.13;101430.63;5049319;28;20036;-83
2022/09/04 02:21:06;;;;;;;31.83;19.70;;;;;;;15.20;87.39;101440.31;5056412;28;20126;-86
2022/09/04 02:23:39;;;;;;;28.65;19.17;;;;;;;15.18;87.50;101442.09;5062160;28;20998;-86
2022/09/04 02:26:27;;;;;;;30.63;19.10;;;;;;;15.17;86.89;101445.63;5050445;28;20036;-86
2022/09/04 02:28:56;;;;;;;31.13;19.20;;;;;;;15.15;87.79;101439.59;5050606;28;20024;-86
2022/09/04 02:31:42;;;;;;;32.63;19.92;;;;;;;15.14;87.07;101450.09;5052085;28;20485;-85
2022/09/04 02:34:38;;;;;;;31.75;20.17;;;;;;;15.10;87.60;101443.25;5055676;28;20025;-86
2022/09/04 02:37:25;;;;;;;30.45;19.88;;;;;;;15.07;87.19;101441.63;5041923;28;20033;-85
2022/09/04 02:40:35;;;;;;;30.33;19.23;;;;;;;15.06;87.28;101442.50;5050215;28;20060;-85
2022/09/04 02:43:26;;;;;;;34.75;20.35;;;;;;;15.03;87.70;101447.81;5046957;28;20474;-86
2022/09/04 02:46:35;;;;;;;30.02;19.52;;;;;;;15.02;87.39;101449.56;5051705;28;20066;-86
2022/09/04 02:49:28;;;;;;;32.20;19.73;;;;;;;15.00;87.79;101453.16;5050062;28;20084;-86
2022/09/04 02:52:32;;;;;;;34.70;20.15;;;;;;;14.99;87.48;101451.44;5056121;28;20039;-86
2022/09/04 02:55:24;;;;;;;31.20;19.83;;;;;;;14.98;87.37;101462.78;5050144;28;20032;-86
2022/09/04 02:58:20;;;;;;;29.23;19.33;;;;;;;14.93;88.53;101457.72;5050096;28;20037;-86
2022/09/04 03:00:59;;;;;;;33.35;20.33;;;;;;;14.94;88.50;101462.03;5053917;28;20032;-86
2022/09/04 03:03:34;;;;;;;30.98;19.30;;;;;;;14.93;89.12;101456.88;5057677;28;20032;-85
2022/09/04 03:06:10;;;;;;;32.53;19.58;;;;;;;14.93;89.13;101462.94;5049476;28;20027;-86
2022/09/04 03:08:48;;;;;;;30.55;19.40;;;;;;;14.92;89.06;101460.38;5049862;28;20029;-86
2022/09/04 03:11:22;;;;;;;32.58;19.20;;;;;;;14.92;89.60;101471.69;5048642;28;20024;-86
2022/09/04 03:13:56;;;;;;;29.67;19.05;;;;;;;14.91;89.08;101469.09;5053081;28;20033;-86
2022/09/04 03:16:38;;;;;;;28.60;18.92;;;;;;;14.93;89.31;101464.69;5048445;28;20118;-85
2022/09/04 03:19:27;;;;;;;31.08;20.20;;;;;;;14.92;89.19;101466.47;5049204;28;20029;-86
2022/09/04 03:22:28;;;;;;;32.03;20.13;;;;;;;14.92;89.20;101466.47;5054278;28;20028;-86
2022/09/04 03:25:19;;;;;;;31.00;19.20;;;;;;;14.91;89.46;101469.09;5048921;28;20063;-86
2022/09/04 03:27:45;;;;;;;30.58;19.13;;;;;;;14.90;89.70;101472.63;5049622;28;20466;-86
2022/09/04 03:30:13;;;;;;;31.00;19.27;;;;;;;14.88;89.61;101472.66;5049339;28;20055;-86
2022/09/04 03:32:53;;;;;;;30.77;19.77;;;;;;;14.89;90.04;101476.97;5051370;28;20051;-86
2022/09/04 03:35:29;;;;;;;31.60;19.13;;;;;;;14.88;90.00;101477.88;5049306;28;20056;-86
2022/09/04 03:38:16;;;;;;;29.30;19.30;;;;;;;14.88;90.32;101477.88;5055749;28;20498;-86
2022/09/04 03:40:50;;;;;;;32.28;19.90;;;;;;;14.87;90.07;101477.94;5033863;28;20110;-86
2022/09/04 03:43:53;;;;;;;33.90;20.08;;;;;;;14.86;89.84;101482.31;5052027;28;20029;-86
2022/09/04 03:46:30;;;;;;;34.40;19.65;;;;;;;14.83;91.19;101479.78;5037871;28;20040;-86
2022/09/04 03:49:25;;;;;;;32.65;20.83;;;;;;;14.84;90.36;101478.88;5049163;28;20445;-86
2022/09/04 03:51:59;;;;;;;32.83;20.38;;;;;;;14.83;91.00;101490.22;5049142;28;20036;-86
2022/09/04 03:54:44;;;;;;;32.60;20.38;;;;;;;14.82;90.73;101487.66;5055181;28;20020;-86
2022/09/04 03:57:20;;;;;;;35.97;21.08;;;;;;;14.82;91.16;101488.50;5036033;28;20016;-86
2022/09/04 04:00:01;;;;;;;32.40;19.98;;;;;;;14.82;91.31;101487.66;5049235;28;20028;-86
2022/09/04 04:02:43;;;;;;;34.38;20.50;;;;;;;14.82;91.36;101488.50;5046328;28;20041;-86
2022/09/04 04:05:23;;;;;;;34.65;19.52;;;;;;;14.82;91.09;101492.88;5058907;28;20081;-86
2022/09/04 04:08:20;;;;;;;33.90;20.13;;;;;;;14.80;90.83;101490.34;5042338;28;20428;-86
2022/09/04 04:11:18;;;;;;;30.73;19.45;;;;;;;14.78;91.10;101499.97;5049108;28;20642;-86
2022/09/04 04:14:21;;;;;;;34.63;20.23;;;;;;;14.76;90.69;101501.75;5036548;28;20032;-86
2022/09/04 04:17:26;;;;;;;35.58;20.17;;;;;;;14.73;91.00;101507.09;5050470;28;20032;-86
2022/09/04 04:20:02;;;;;;;;;;;;;;;14.75;88.24;101507.00;5048408;28;20121;-86
2022/09/04 04:22:43;;;;;;;35.03;18.45;;;;;;;14.69;91.24;101501.97;5045414;28;19912;-87
2022/09/04 04:25:24;;;;;;;35.05;19.75;;;;;;;14.65;91.72;101514.28;5064141;28;20041;-86
2022/09/04 04:28:18;;;;;;;36.63;19.88;;;;;;;14.66;91.69;101516.00;5048386;28;20025;-86
2022/09/04 04:30:53;;;;;;;36.60;19.55;;;;;;;14.65;92.00;101518.66;5039136;28;20036;-86
2022/09/04 04:33:31;;;;;;;35.67;19.67;;;;;;;14.64;91.41;101520.41;5049055;28;20017;-86
2022/09/04 04:36:04;;;;;;;35.13;20.50;;;;;;;14.63;91.81;101529.13;5047357;28;20116;-86
2022/09/04 04:38:35;;;;;;;34.03;20.00;;;;;;;14.61;91.58;101525.69;5052261;28;20032;-87
2022/09/04 04:41:15;;;;;;;32.70;20.20;;;;;;;14.59;91.56;101523.16;5057475;28;20527;-86
2022/09/04 04:43:55;;;;;;;32.83;19.15;;;;;;;14.60;91.95;101530.06;5042697;28;20090;-86
2022/09/04 04:46:35;;;;;;;32.85;19.75;;;;;;;14.56;92.01;101528.44;5052380;28;20040;-86
2022/09/04 04:49:16;;;;;;;31.08;19.85;;;;;;;14.54;91.69;101532.84;5062878;28;20486;-86
2022/09/04 04:52:18;;;;;;;34.70;20.13;;;;;;;14.53;92.07;101530.31;5040907;28;20254;-86
2022/09/04 04:55:05;;;;;;;34.65;20.23;;;;;;;14.53;92.03;101532.91;5057947;28;20316;-86
2022/09/04 04:57:54;;;;;;;30.85;19.20;;;;;;;14.51;92.29;101532.09;5049285;28;20501;-86
2022/09/04 05:00:26;;;;;;;30.92;18.75;;;;;;;14.49;92.59;101531.28;5055313;28;20028;-86
2022/09/04 05:03:02;;;;;;;29.80;19.13;;;;;;;14.51;92.24;101540.78;5050738;28;20111;-86
2022/09/04 05:05:33;;;;;;;27.75;18.55;;;;;;;14.53;92.28;101551.19;5051934;28;20025;-86
2022/09/04 05:08:27;;;;;;;31.30;19.60;;;;;;;14.50;92.14;101543.41;5050965;28;20075;-86
2022/09/04 05:10:59;;;;;;;31.48;19.50;;;;;;;14.51;92.26;101547.75;5049124;28;20544;-86
2022/09/04 05:14:01;;;;;;;33.05;19.63;;;;;;;14.52;91.97;101549.47;5051169;28;20024;-86
2022/09/04 05:16:47;;;;;;;29.55;19.48;;;;;;;14.52;91.91;101555.53;5040614;28;20025;-86
2022/09/04 05:19:39;;;;;;;30.48;19.60;;;;;;;14.52;92.27;101558.16;5049085;28;20105;-84
2022/09/04 05:22:33;;;;;;;33.30;19.17;;;;;;;14.55;92.03;101558.03;5051934;28;20481;-84
2022/09/04 05:25:23;;;;;;;32.78;19.52;;;;;;;14.55;93.07;101558.03;5050392;28;20048;-84
2022/09/04 05:27:51;;;;;;;33.13;19.60;;;;;;;14.59;92.93;101566.66;5050621;28;20028;-84
2022/09/04 05:30:30;;;;;;;35.03;20.67;;;;;;;14.60;92.90;101568.38;5053686;28;20035;-84
2022/09/04 05:33:07;;;;;;;30.88;20.38;;;;;;;14.58;93.03;101576.22;5051581;28;20029;-84
2022/09/04 05:36:05;;;;;;;33.47;21.17;;;;;;;14.63;92.95;101576.94;5051154;28;20046;-84
2022/09/04 05:38:42;;;;;;;36.33;21.25;;;;;;;14.65;93.13;101579.53;5051757;28;20464;-84
2022/09/04 05:41:43;;;;;;;32.80;19.88;;;;;;;14.67;92.88;101584.69;5054507;28;20025;-84
2022/09/04 05:44:25;;;;;;;31.77;19.00;;;;;;;14.69;93.53;101596.78;5052186;28;20048;-85
2022/09/04 05:47:16;;;;;;;33.50;20.58;;;;;;;14.74;93.55;101604.50;5056563;28;20108;-84
2022/09/04 05:50:02;;;;;;;34.40;20.55;;;;;;;14.76;93.18;101613.13;5046962;28;20139;-84
2022/09/04 05:52:59;;;;;;;33.15;21.15;;;;;;;14.80;93.53;101599.09;5050727;28;20478;-84
2022/09/04 05:55:47;;;;;;;31.52;20.27;;;;;;;14.83;93.48;101607.69;5053035;28;20033;-84
2022/09/04 05:58:30;;;;;;;38.22;22.02;;;;;;;14.88;93.87;101615.38;5050294;28;20028;-86
2022/09/04 06:01:34;;;;;;;34.30;21.65;;;;;;;14.92;93.63;101624.84;5038836;28;20036;-86
2022/09/04 06:04:13;;;;;;;34.17;21.67;;;;;;;14.98;95.11;101617.69;5051234;28;20017;-86
2022/09/04 06:06:46;;;;;;;33.97;21.17;;;;;;;14.98;93.58;101627.28;5046479;28;20510;-87
2022/09/04 06:09:24;;;;;;;35.67;22.63;;;;;;;15.00;93.66;101615.91;5050806;28;20021;-87
2022/09/04 06:11:58;;;;;;;35.25;21.33;;;;;;;15.08;94.08;101623.47;5050805;28;20466;-88
2022/09/04 06:15:12;;;;;;;36.47;22.70;;;;;;;15.11;93.55;101626.00;5051801;28;20043;-87
2022/09/04 06:17:43;;;;;;;39.30;23.13;;;;;;;15.18;95.61;101627.53;5052808;28;20466;-88
2022/09/04 06:20:20;;;;;;;37.65;22.65;;;;;;;15.21;94.95;101637.06;5043842;28;20037;-88
2022/09/04 06:23:38;;;;;;;38.45;23.58;;;;;;;15.26;95.88;101622.09;5047155;28;20037;-89
2022/09/04 06:26:19;;;;;;;35.25;21.67;;;;;;;15.32;95.76;101617.53;5064838;28;20107;-87
2022/09/04 06:29:14;;;;;;;35.67;22.35;;;;;;;15.38;95.06;101634.75;5067770;28;20420;-88
2022/09/04 06:31:57;;;;;;;35.15;22.45;;;;;;;15.44;94.49;101626.72;5054033;28;20128;-88
2022/09/04 06:34:44;;;;;;;33.60;21.67;;;;;;;15.54;95.45;101633.44;5058948;28;20028;-88
2022/09/04 06:37:42;;;;;;;36.70;21.50;;;;;;;15.64;95.74;101640.06;5054424;28;20017;-87
2022/09/04 06:40:37;;;;;;;34.53;21.05;;;;;;;15.78;96.75;101642.22;5049909;28;20547;-87
2022/09/04 06:43:14;;;;;;;31.27;19.02;;;;;;;15.84;94.99;101636.78;5049908;28;20121;-89
2022/09/04 06:45:58;;;;;;;32.88;19.23;;;;;;;15.92;95.28;101639.16;5052331;28;20022;-88
2022/09/04 06:48:37;;;;;;;31.10;18.83;;;;;;;15.98;96.11;101639.81;5049732;28;20055;-87
2022/09/04 06:51:22;;;;;;;31.92;19.00;;;;;;;16.08;95.41;101646.47;5050554;28;20456;-87
2022/09/04 06:54:14;;;;;;;33.65;19.98;;;;;;;16.16;96.26;101644.44;5039941;28;20033;-88
2022/09/04 06:57:06;;;;;;;28.88;18.08;;;;;;;16.26;95.87;101644.09;5054437;28;20032;-88
2022/09/04 06:59:46;;;;;;;33.35;17.92;;;;;;;16.38;96.53;101641.06;5049664;28;21265;-84
2022/09/04 07:02:41;;;;;;;28.70;18.60;;;;;;;16.46;96.68;101647.75;5044966;28;20012;-84
2022/09/04 07:05:23;;;;;;;31.73;18.05;;;;;;;16.57;96.42;101645.63;5048441;28;20426;-85
2022/09/04 07:08:12;;;;;;;29.02;17.40;;;;;;;16.67;96.48;101651.41;5052858;28;20400;-85
2022/09/04 07:10:57;;;;;;;30.80;18.02;;;;;;;16.78;96.71;101645.78;5048053;28;20098;-85
2022/09/04 07:14:00;;;;;;;27.55;17.27;;;;;;;16.85;95.77;101649.88;5048345;28;20390;-84
2022/09/04 07:17:04;;;;;;;27.95;17.35;;;;;;;16.94;96.36;101650.38;5054885;28;20029;-85
2022/09/04 07:19:53;;;;;;;25.90;16.95;;;;;;;17.08;95.42;101657.72;5049503;28;20029;-84
2022/09/04 07:22:37;;;;;;;30.13;18.08;;;;;;;17.18;96.03;101658.25;5049474;28;20502;-85
2022/09/04 07:25:28;;;;;;;28.75;17.67;;;;;;;17.27;94.66;101668.34;5049965;28;20443;-85
2022/09/04 07:28:24;;;;;;;25.92;17.20;;;;;;;17.34;95.98;101667.22;5049393;28;20087;-85
2022/09/04 07:31:02;;;;;;;26.85;16.92;;;;;;;17.43;95.29;101664.25;5044227;28;20490;-85
2022/09/04 07:33:51;;;;;;;29.27;18.88;;;;;;;17.52;95.20;101660.41;5049612;28;20021;-84
2022/09/04 07:36:26;;;;;;;29.98;17.48;;;;;;;17.60;94.32;101661.84;5052776;28;20100;-84
2022/09/04 07:39:00;;;;;;;32.35;18.00;;;;;;;17.72;94.06;101674.47;5047830;28;20043;-85
2022/09/04 07:42:08;;;;;;;27.67;17.40;;;;;;;17.77;94.43;101664.66;5036446;28;20087;-85
2022/09/04 07:44:53;;;;;;;29.35;18.17;;;;;;;17.87;93.15;101666.91;5049088;28;20012;-85
2022/09/04 07:47:34;;;;;;;29.17;17.30;;;;;;;17.98;93.75;101670.78;5051739;28;20025;-84
2022/09/04 07:50:17;;;;;;;32.25;18.30;;;;;;;18.12;93.38;101670.22;5047729;28;20051;-85
2022/09/04 07:53:01;;;;;;;27.38;16.92;;;;;;;18.27;92.54;101681.84;5047648;28;20036;-85
2022/09/04 07:55:45;;;;;;;28.58;15.85;;;;;;;18.37;92.18;101678.75;5051465;28;20482;-84
2022/09/04 07:58:49;;;;;;;27.48;16.65;;;;;;;18.49;91.64;101682.66;5047606;28;20070;-85
2022/09/04 08:01:38;;;;;;;27.05;16.85;;;;;;;18.62;91.12;101683.84;5049122;28;20025;-85
2022/09/04 08:04:29;;;;;;;26.42;16.70;;;;;;;18.75;90.45;101692.03;5058891;28;20059;-85
2022/09/04 08:07:00;;;;;;;27.60;16.10;;;;;;;18.90;89.99;101691.38;5048617;28;20024;-85
2022/09/04 08:09:53;;;;;;;26.20;16.38;;;;;;;19.06;89.80;101696.78;5048913;28;20024;-85
2022/09/04 08:12:37;;;;;;;25.60;16.42;;;;;;;19.23;90.49;101694.25;5052178;28;20497;-85
2022/09/04 08:15:13;;;;;;;24.55;16.15;;;;;;;19.38;90.88;101698.75;5067665;28;20447;-85
2022/09/04 08:17:52;;;;;;;29.08;15.75;;;;;;;19.60;90.14;101701.28;5034330;28;20010;-85
2022/09/04 08:21:03;;;;;;;23.98;15.70;;;;;;;19.97;89.62;101709.13;5048484;28;20033;-85
2022/09/04 08:24:06;;;;;;;24.55;16.27;;;;;;;20.49;87.53;101702.13;5057591;28;20234;-85
2022/09/04 08:26:49;;;;;;;23.60;15.65;;;;;;;20.88;86.85;101706.22;5054891;28;20037;-85
2022/09/04 08:29:41;;;;;;;24.38;15.70;;;;;;;21.26;85.46;101705.06;5040702;28;20025;-89
2022/09/04 08:32:12;;;;;;;25.00;16.02;;;;;;;21.50;80.14;101704.66;5052431;28;20474;-88
2022/09/04 08:34:51;;;;;;;22.45;15.23;;;;;;;21.71;82.15;101703.44;5056688;28;20029;-89
2022/09/04 08:37:29;;;;;;;24.73;15.27;;;;;;;22.03;79.98;101707.78;5052253;28;20025;-89
2022/09/04 08:40:24;;;;;;;20.88;14.80;;;;;;;22.44;78.91;101713.31;5052762;28;20028;-88
2022/09/04 08:43:08;;;;;;;20.02;14.57;;;;;;;22.82;75.92;101712.81;5052356;28;20033;-89
2022/09/04 08:46:12;;;;;;;23.48;16.02;;;;;;;23.13;76.31;101709.94;5052256;28;20098;-88
2022/09/04 08:48:52;;;;;;;22.33;14.98;;;;;;;23.32;71.17;101716.75;5061288;28;20521;-89
2022/09/04 08:51:36;;;;;;;21.85;14.48;;;;;;;23.41;73.49;101711.72;5051930;28;20056;-89
2022/09/04 08:54:35;;;;;;;20.20;13.68;;;;;;;23.67;73.83;101718.06;5056478;28;20513;-88
2022/09/04 08:57:34;;;;;;;19.45;13.93;;;;;;;23.88;73.25;101716.63;5052117;28;20013;-88
2022/09/04 09:00:14;;;;;;;20.45;13.63;;;;;;;24.15;70.96;101713.97;5052342;28;20169;-88
2022/09/04 09:03:01;;;;;;;20.73;13.30;;;;;;;24.35;70.02;101720.63;5050754;28;20031;-89
2022/09/04 09:05:58;;;;;;;18.40;12.68;;;;;;;24.43;70.57;101715.63;5050982;28;20056;-89
2022/09/04 09:08:41;;;;;;;19.45;13.43;;;;;;;24.44;67.36;101719.97;5051701;28;20540;-88
2022/09/04 09:11:44;;;;;;;16.65;12.30;;;;;;;24.52;70.52;101727.41;5040217;28;20033;-89
2022/09/04 09:14:33;;;;;;;18.67;12.35;;;;;;;24.61;69.43;101722.34;5051076;28;20025;-89
2022/09/04 09:17:04;;;;;;;18.85;12.05;;;;;;;24.72;67.76;101718.94;5052190;28;20390;-89
2022/09/04 09:19:53;;;;;;;21.05;13.75;;;;;;;24.87;66.02;101720.53;5050441;28;20033;-88
2022/09/04 09:22:37;;;;;;;19.17;11.68;;;;;;;25.07;66.65;101727.13;5051123;28;20395;-89
2022/09/04 09:25:19;;;;;;;16.30;11.05;;;;;;;25.13;63.42;101724.91;5052766;28;20024;-88
2022/09/04 09:28:16;;;;;;;18.08;12.10;;;;;;;25.11;65.35;101721.50;5056123;28;20036;-90
2022/09/04 09:31:05;;;;;;;15.93;11.70;;;;;;;25.15;65.12;101714.19;5051890;28;20032;-89
2022/09/04 09:33:57;;;;;;;19.45;11.73;;;;;;;25.24;63.87;101713.53;5039234;28;20033;-89
2022/09/04 09:36:48;;;;;;;15.35;10.80;;;;;;;25.33;63.57;101714.66;5049059;28;20513;-88
2022/09/04 09:39:49;;;;;;;13.10;8.60;;;;;;;25.60;64.54;101720.66;5054811;28;20025;-89
2022/09/04 09:42:48;;;;;;;14.05;9.80;;;;;;;25.58;63.80;101719.97;5051899;28;20107;-89
2022/09/04 09:45:37;;;;;;;13.73;9.80;;;;;;;25.48;61.51;101718.88;5021552;28;20048;-89
2022/09/04 09:48:22;;;;;;;14.43;9.70;;;;;;;25.50;61.50;101722.28;5053096;28;20325;-89
2022/09/04 09:51:35;;;;;;;13.88;11.00;;;;;;;25.43;61.24;101724.53;5051169;28;20066;-89
2022/09/04 09:54:33;;;;;;;12.02;8.50;;;;;;;25.53;62.20;101724.69;5049348;28;20039;-90
2022/09/04 09:57:43;;;;;;;12.00;7.45;;;;;;;25.67;60.39;101718.41;5058204;28;20513;-88
2022/09/04 10:00:16;;;;;;;10.40;7.35;;;;;;;25.64;60.00;101716.84;5050081;28;20386;-89
2022/09/04 10:02:59;;;;;;;12.45;8.00;;;;;;;25.80;59.72;101716.56;5051126;28;20086;-89
2022/09/04 10:05:57;;;;;;;13.38;7.90;;;;;;;25.91;60.09;101717.47;5056454;28;20492;-89
2022/09/04 10:08:41;;;;;;;12.68;8.20;;;;;;;25.95;56.84;101713.63;5052131;28;20458;-89
2022/09/04 10:11:12;;;;;;;;;;;;;;;26.05;59.30;101719.09;5051471;28;20024;-89
2022/09/04 10:13:57;;;;;;;9.95;5.80;;;;;;;25.90;58.78;101709.63;5051039;28;19948;-89
2022/09/04 10:16:41;;;;;;;10.02;6.03;;;;;;;25.83;58.58;101708.38;5051348;28;20401;-90
2022/09/04 10:19:37;;;;;;;9.13;5.80;;;;;;;25.76;58.98;101715.09;5051924;28;20132;-90
2022/09/04 10:22:30;;;;;;;7.97;5.65;;;;;;;25.84;57.88;101710.06;5049217;28;20059;-90
2022/09/04 10:25:01;;;;;;;6.50;4.10;;;;;;;25.89;57.16;101719.38;5051870;28;20032;-89
2022/09/04 10:27:56;;;;;;;6.75;4.45;;;;;;;26.04;57.99;101714.75;5053828;28;20039;-90
2022/09/04 10:30:23;;;;;;;7.32;4.80;;;;;;;25.96;56.23;101715.31;5050610;28;20129;-89
2022/09/04 10:32:57;;;;;;;6.60;4.85;;;;;;;25.98;55.21;101717.03;5050871;28;20123;-89
2022/09/04 10:35:23;;;;;;;10.02;4.38;;;;;;;25.95;55.88;101713.63;5053299;28;20056;-90
2022/09/04 10:38:19;;;;;;;7.80;5.00;;;;;;;25.96;56.41;101719.78;5050601;28;20202;-89
2022/09/04 10:41:04;;;;;;;6.05;4.88;;;;;;;25.91;55.97;101716.63;5048724;28;20029;-86
2022/09/04 10:43:48;;;;;;;8.20;4.68;;;;;;;25.70;57.63;101721.72;5048756;28;20167;-86
2022/09/04 10:46:23;;;;;;;6.35;4.80;;;;;;;25.49;55.63;101715.28;5053627;28;20040;-86
2022/09/04 10:49:17;;;;;;;6.00;4.82;;;;;;;25.38;58.38;101720.50;5048890;28;20029;-86
2022/09/04 10:52:08;;;;;;;7.78;5.43;;;;;;;25.70;58.78;101716.41;5050040;28;20120;-86
2022/09/04 10:55:12;;;;;;;7.00;4.53;;;;;;;26.10;57.06;101718.75;5048609;28;20025;-86
2022/09/04 10:57:53;;;;;;;7.72;4.75;;;;;;;26.48;57.21;101714.06;5036676;28;20029;-86
2022/09/04 11:00:30;;;;;;;7.97;4.47;;;;;;;26.63;55.22;101715.53;5049959;28;20041;-86
2022/09/04 11:03:06;;;;;;;6.53;4.50;;;;;;;26.79;54.48;101715.22;5048241;28;20457;-87
2022/09/04 11:05:54;;;;;;;6.95;4.68;;;;;;;26.81;53.82;101713.28;5049414;28;20108;-86
2022/09/04 11:08:37;;;;;;;6.45;4.57;;;;;;;26.89;52.64;101710.00;5049959;28;20027;-87
2022/09/04 11:11:43;;;;;;;5.97;4.20;;;;;;;26.98;54.89;101712.81;5049696;28;20086;-86
2022/09/04 11:14:27;;;;;;;5.47;4.25;;;;;;;27.12;51.42;101706.41;5048282;28;20028;-86
2022/09/04 11:17:18;;;;;;;5.88;4.05;;;;;;;27.15;52.10;101716.81;5048124;28;20481;-86
2022/09/04 11:19:53;;;;;;;5.30;4.18;;;;;;;27.09;50.05;101717.31;5049811;28;20117;-86
2022/09/04 11:22:57;;;;;;;6.28;4.05;;;;;;;26.97;51.86;101708.47;5048400;28;20028;-86
2022/09/04 11:25:47;;;;;;;11.10;3.92;;;;;;;26.88;53.21;101713.66;5052131;28;20013;-86
2022/09/04 11:28:55;;;;;;;4.22;3.20;;;;;;;26.87;50.78;101711.94;5055095;28;20230;-86
2022/09/04 11:31:47;;;;;;;4.72;2.80;;;;;;;26.98;48.06;101704.84;5049269;28;20457;-86
2022/09/04 11:34:32;;;;;;;3.47;2.85;;;;;;;27.25;50.17;101711.59;5047695;28;20513;-86
2022/09/04 11:37:09;;;;;;;3.28;2.85;;;;;;;27.32;47.77;101716.31;5058172;28;20342;-86
2022/09/04 11:40:03;;;;;;;4.57;3.20;;;;;;;27.32;48.48;101713.66;5048323;28;20402;-89
2022/09/04 11:42:33;;;;;;;8.75;3.03;;;;;;;27.34;45.77;101716.19;5038420;28;20490;-91
2022/09/04 11:45:04;;;;;;;5.57;3.22;;;;;;;27.23;46.46;101706.38;5047094;28;20021;-89
2022/09/04 11:47:53;;;;;;;3.53;3.22;;;;;;;27.06;47.08;101706.91;5048948;28;20061;-88
2022/09/04 11:50:39;;;;;;;3.67;3.00;;;;;;;27.04;48.34;101707.00;5048995;28;20422;-90
2022/09/04 11:53:32;;;;;;;4.43;2.97;;;;;;;26.93;47.23;101703.50;5048971;28;20029;-89
2022/09/04 11:56:14;;;;;;;3.80;3.40;;;;;;;26.97;45.60;101711.13;5037840;28;20081;-89
2022/09/04 11:58:48;;;;;;;7.93;3.70;;;;;;;27.00;46.11;101713.56;5036505;28;20020;-89
2022/09/04 12:01:43;;;;;;;5.20;3.60;;;;;;;27.07;47.96;101720.09;5047471;28;20059;-90
2022/09/04 12:04:29;;;;;;;4.05;3.40;;;;;;;27.13;46.88;101718.75;5053629;28;20285;-89
2022/09/04 12:07:11;;;;;;;6.22;3.70;;;;;;;27.12;47.17;101714.41;5036255;28;20099;-88
2022/09/04 12:10:00;;;;;;;6.05;3.42;;;;;;;27.16;47.25;101721.16;5048395;28;20018;-89
2022/09/04 12:12:47;;;;;;;4.97;3.80;;;;;;;27.18;45.09;101721.03;5047772;28;20025;-89
2022/09/04 12:15:31;;;;;;;6.07;4.00;;;;;;;27.18;44.88;101729.03;5054558;28;20040;-89
2022/09/04 12:18:16;;;;;;;;;;;;;;;27.28;47.60;101724.69;5049564;28;20021;-89
2022/09/04 12:21:02;;;;;;;4.88;3.70;;;;;;;27.15;46.83;101726.63;5049069;28;20457;-89
2022/09/04 12:23:32;;;;;;;4.28;3.63;;;;;;;27.13;45.38;101726.75;5044977;28;20033;-89
2022/09/04 12:26:33;;;;;;;4.80;3.83;;;;;;;27.22;46.08;101720.69;5054757;28;20109;-89
2022/09/04 12:29:27;;;;;;;5.15;3.92;;;;;;;27.28;46.68;101727.34;5049237;28;20028;-89
2022/09/04 12:32:07;;;;;;;;;;;;;;;27.38;47.73;101738.94;5048053;28;20263;-89
2022/09/04 12:34:41;;;;;;;5.35;4.25;;;;;;;27.32;42.91;101732.28;5053294;28;19912;-89
2022/09/04 12:37:22;;;;;;;6.60;4.00;;;;;;;27.26;45.82;101732.78;5050532;28;20025;-89
2022/09/04 12:40:11;;;;;;;5.95;4.28;;;;;;;27.18;45.99;101737.88;5056542;28;20159;-89